Time;durP1;ratioP1;P1;durP2;ratioP2;P2;SDS_P1;SDS_P2;PMS_P1;PMS_P2;Temp;Humidity;BMP_temperature;BMP_pressure;BME280_temperature;BME280_humidity;BME280_pressure;Samples;Min_cycle;Max_cycle;Signal;HPM_P1;HPM_P2
2021/04/07 00:00:49;;;;;;;5.35;3.15;;;102.50;2227.20;;;;;;5050338;28;19912;-76
2021/04/07 00:03:15;;;;;;;;;;;102.70;2227.20;;;;;;5016728;28;20030;-76
2021/04/07 00:05:45;;;;;;;7.18;3.78;;;103.00;2227.20;;;;;;5035044;28;19964;-78
2021/04/07 00:08:11;;;;;;;5.97;3.03;;;103.00;2227.20;;;;;;5050676;28;20067;-77
2021/04/07 00:10:39;;;;;;;9.27;2.85;;;103.30;2227.20;;;;;;5054076;28;20041;-77
2021/04/07 00:13:06;;;;;;;6.28;2.50;;;128.00;2252.80;;;;;;5036931;28;20039;-77
2021/04/07 00:15:33;;;;;;;5.75;2.47;;;128.00;2252.80;;;;;;5054562;28;20029;-77
2021/04/07 00:17:59;;;;;;;11.40;3.92;;;128.00;2252.80;;;;;;5037267;28;20021;-77
2021/04/07 00:20:26;;;;;;;8.98;3.50;;;103.10;2227.20;;;;;;5040033;28;20834;-77
2021/04/07 00:22:52;;;;;;;4.30;2.70;;;103.00;2227.20;;;;;;5058066;28;20055;-77
2021/04/07 00:25:18;;;;;;;;;;;103.00;2227.20;;;;;;5040683;28;20029;-76
2021/04/07 00:27:53;;;;;;;5.47;3.30;;;103.00;2227.20;;;;;;5040469;28;20378;-76
2021/04/07 00:30:20;;;;;;;5.07;2.67;;;102.90;2227.20;;;;;;5159704;22;20291;-75
2021/04/07 00:32:45;;;;;;;5.78;3.10;;;102.90;2227.20;;;;;;5033705;28;20526;-77
2021/04/07 00:35:11;;;;;;;;;;;102.80;2227.20;;;;;;5047679;28;20104;-77
2021/04/07 00:37:37;;;;;;;8.15;2.67;;;102.50;2227.20;;;;;;5028923;28;19905;-77
2021/04/07 00:40:04;;;;;;;;;;;102.90;2227.20;;;;;;5047032;28;20047;-77
2021/04/07 00:42:32;;;;;;;4.80;2.97;;;102.90;2227.20;;;;;;5046645;28;20372;-77
2021/04/07 00:44:59;;;;;;;4.97;3.17;;;102.90;2227.20;;;;;;5047615;28;20032;-77
2021/04/07 00:47:26;;;;;;;7.30;2.72;;;102.90;2227.20;;;;;;5025046;28;20508;-77
2021/04/07 00:49:52;;;;;;;6.88;3.00;;;103.00;2227.20;;;;;;5027683;28;20032;-77
2021/04/07 00:52:17;;;;;;;;;;;102.90;2227.20;;;;;;5045144;28;20033;-77
2021/04/07 00:54:44;;;;;;;5.43;2.97;;;102.80;2227.20;;;;;;5045347;28;19912;-77
2021/04/07 00:57:09;;;;;;;4.90;2.95;;;102.90;2227.20;;;;;;5048670;28;20531;-77
2021/04/07 00:59:35;;;;;;;;;;;103.00;2227.20;;;;;;5046310;28;20017;-77
2021/04/07 01:02:01;;;;;;;5.53;2.92;;;102.90;2227.20;;;;;;5040891;28;19981;-77
2021/04/07 01:04:27;;;;;;;;;;;102.80;2227.20;;;;;;5048312;28;20029;-77
2021/04/07 01:06:53;;;;;;;4.88;2.80;;;102.90;2227.20;;;;;;5046878;28;19905;-77
2021/04/07 01:09:19;;;;;;;;;;;102.90;2227.20;;;;;;5047218;28;20029;-76
2021/04/07 01:11:44;;;;;;;;;;;102.90;2227.20;;;;;;5043591;28;19975;-77
2021/04/07 01:14:11;;;;;;;;;;;102.80;2227.20;;;;;;5048791;28;19908;-77
2021/04/07 01:16:37;;;;;;;;;;;102.90;2227.20;;;;;;5037075;28;20283;-77
2021/04/07 01:19:03;;;;;;;;;;;102.90;2227.20;;;;;;5028814;28;19904;-77
2021/04/07 01:21:29;;;;;;;;;;;102.80;2227.20;;;;;;5043674;28;19905;-77
2021/04/07 01:23:54;;;;;;;;;;;102.80;2227.20;;;;;;5029024;28;20275;-75
2021/04/07 01:26:20;;;;;;;;;;;102.70;2227.20;;;;;;5047768;28;19905;-76
2021/04/07 01:28:45;;;;;;;;;;;102.60;2227.20;;;;;;5043384;28;20324;-75
2021/04/07 01:31:11;;;;;;;;;;;102.60;2227.20;;;;;;5026983;28;19921;-76
2021/04/07 01:33:37;;;;;;;;;;;102.70;2227.20;;;;;;5047032;28;20379;-76
2021/04/07 01:36:03;;;;;;;;;;;102.70;2227.20;;;;;;5027515;28;19905;-76
2021/04/07 01:38:28;;;;;;;;;;;102.60;2227.20;;;;;;5047077;28;19996;-76
2021/04/07 01:40:55;;;;;;;;;;;102.50;2227.20;;;;;;5046204;28;19911;-75
2021/04/07 01:43:22;;;;;;;;;;;102.60;2227.20;;;;;;5044875;28;20000;-75
2021/04/07 01:45:48;;;;;;;;;;;102.60;2227.20;;;;;;5042848;28;19928;-75
2021/04/07 01:48:14;;;;;;;;;;;102.60;2227.20;;;;;;5029116;28;19951;-75
2021/04/07 01:50:41;;;;;;;;;;;102.60;2227.20;;;;;;5046041;28;19913;-76
2021/04/07 01:53:07;;;;;;;;;;;102.60;2227.20;;;;;;5028328;28;19905;-76
2021/04/07 01:55:33;;;;;;;;;;;102.70;2227.20;;;;;;5046150;28;20012;-75
2021/04/07 01:57:59;;;;;;;;;;;102.60;2227.20;;;;;;5046137;28;19943;-75
2021/04/07 02:00:24;;;;;;;;;;;102.50;2227.20;;;;;;5045414;28;19924;-75
2021/04/07 02:02:50;;;;;;;;;;;102.50;2227.20;;;;;;5044949;28;19909;-76
2021/04/07 02:05:15;;;;;;;;;;;102.50;2227.20;;;;;;5046503;28;19908;-76
2021/04/07 02:07:41;;;;;;;;;;;102.40;2227.20;;;;;;5046348;28;20272;-75
2021/04/07 02:10:08;;;;;;;;;;;102.40;2227.20;;;;;;5026129;28;19913;-76
2021/04/07 02:12:33;;;;;;;;;;;77.70;2227.20;;;;;;5028768;28;20383;-75
2021/04/07 02:14:59;;;;;;;;;;;102.40;2227.20;;;;;;5045592;28;19927;-75
2021/04/07 02:17:25;;;;;;;;;;;102.40;2227.20;;;;;;5046357;28;19905;-75
2021/04/07 02:19:50;;;;;;;;;;;102.50;2227.20;;;;;;5044859;28;20027;-76
2021/04/07 02:22:21;;;;;;;;;;;102.40;2227.20;;;;;;5044791;28;19916;-76
2021/04/07 02:24:48;;;;;;;;;;;102.60;2227.20;;;;;;5045937;28;19913;-76
2021/04/07 02:27:16;;;;;;;;;;;102.60;2227.20;;;;;;5044199;28;19958;-76
2021/04/07 02:29:44;;;;;;;;;;;102.50;2227.20;;;;;;5046758;28;20417;-76
2021/04/07 02:32:10;;;;;;;;;;;102.40;2227.20;;;;;;5045513;28;20403;-76
2021/04/07 02:34:36;;;;;;;;;;;102.50;2227.20;;;;;;5046440;28;19910;-76
2021/04/07 02:37:02;;;;;;;;;;;102.40;2227.20;;;;;;5029565;28;19905;-78
2021/04/07 02:39:28;;;;;;;;;;;102.40;2227.20;;;;;;5046428;28;19905;-77
2021/04/07 02:41:54;;;;;;;;;;;102.40;2227.20;;;;;;5044699;28;19996;-76
2021/04/07 02:44:19;;;;;;;;;;;77.70;2227.20;;;;;;5046566;28;19905;-76
2021/04/07 02:46:45;;;;;;;;;;;102.40;2227.20;;;;;;5045477;28;19908;-77
2021/04/07 02:49:11;;;;;;;;;;;102.40;2227.20;;;;;;5046497;28;19912;-76
2021/04/07 02:51:36;;;;;;;;;;;102.40;2227.20;;;;;;5043963;28;19996;-76
2021/04/07 02:54:03;;;;;;;;;;;102.40;2227.20;;;;;;5028468;28;19911;-76
2021/04/07 02:56:31;;;;;;;;;;;77.70;2227.20;;;;;;5048757;28;20352;-76
2021/04/07 02:58:57;;;;;;;;;;;77.70;2227.20;;;;;;5047301;28;19905;-77
2021/04/07 03:01:23;;;;;;;;;;;77.60;2227.20;;;;;;5037704;28;19970;-76
2021/04/07 03:03:48;;;;;;;;;;;102.40;2227.20;;;;;;5045379;28;20291;-76
2021/04/07 03:06:14;;;;;;;;;;;102.40;2227.20;;;;;;5046378;28;19912;-77
2021/04/07 03:08:39;;;;;;;;;;;77.70;2227.20;;;;;;5047503;28;19963;-76
2021/04/07 03:11:05;;;;;;;;;;;77.70;2227.20;;;;;;5045544;28;20347;-76
2021/04/07 03:13:31;;;;;;;;;;;77.70;2227.20;;;;;;5025472;28;19909;-76
2021/04/07 03:15:56;;;;;;;;;;;77.70;2227.20;;;;;;5049045;28;20324;-77
2021/04/07 03:18:22;;;;;;;;;;;77.60;2227.20;;;;;;5046348;28;19911;-77
2021/04/07 03:20:48;;;;;;;;;;;77.70;2227.20;;;;;;5046617;28;19957;-76
2021/04/07 03:23:13;;;;;;;;;;;77.60;2227.20;;;;;;5047947;28;19889;-76
2021/04/07 03:25:39;;;;;;;;;;;77.60;2227.20;;;;;;5044246;28;19905;-76
2021/04/07 03:28:04;;;;;;;;;;;77.70;2227.20;;;;;;5027423;28;19889;-76
2021/04/07 03:30:48;;;;;;;;;;;102.40;2227.20;;;;;;5045153;28;20391;-76
2021/04/07 03:33:14;;;;;;;;;;;102.40;2227.20;;;;;;5043979;28;19912;-76
2021/04/07 03:35:40;;;;;;;;;;;102.40;2227.20;;;;;;5043161;28;19905;-76
2021/04/07 03:38:05;;;;;;;;;;;102.40;2227.20;;;;;;5045085;28;19908;-76
2021/04/07 03:40:31;;;;;;;;;;;77.70;2227.20;;;;;;5037934;28;19956;-76
2021/04/07 03:42:57;;;;;;;;;;;77.70;2227.20;;;;;;5043968;28;19909;-76
2021/04/07 03:45:22;;;;;;;;;;;77.60;2227.20;;;;;;5044242;28;20283;-76
2021/04/07 03:47:48;;;;;;;;;;;77.60;2227.20;;;;;;5044512;28;19905;-76
2021/04/07 03:50:13;;;;;;;;;;;77.60;2227.20;;;;;;5041692;28;19913;-76
2021/04/07 03:52:39;;;;;;;;;;;77.60;2227.20;;;;;;5045193;28;19905;-77
2021/04/07 03:55:05;;;;;;;;;;;77.50;2227.20;;;;;;5047782;28;19909;-76
2021/04/07 03:57:30;;;;;;;;;;;77.60;2227.20;;;;;;5029464;28;19920;-76
2021/04/07 03:59:56;;;;;;;;;;;77.50;2227.20;;;;;;5046155;28;19916;-76
2021/04/07 04:02:22;;;;;;;;;;;102.40;2227.20;;;;;;5038332;28;19909;-76
2021/04/07 04:04:47;;;;;;;;;;;77.40;2227.20;;;;;;5047030;28;19996;-76
2021/04/07 04:07:13;;;;;;;;;;;77.50;2227.20;;;;;;5045573;28;19909;-76
2021/04/07 04:09:39;;;;;;;;;;;77.50;2227.20;;;;;;5046975;28;19911;-76
2021/04/07 04:12:04;;;;;;;;;;;77.50;2227.20;;;;;;5046749;28;20353;-76
2021/04/07 04:14:30;;;;;;;;;;;77.60;2227.20;;;;;;5037768;28;19905;-76
2021/04/07 04:16:55;;;;;;;;;;;77.60;2227.20;;;;;;5040162;28;19908;-76
2021/04/07 04:19:21;;;;;;;;;;;77.60;2227.20;;;;;;5038443;28;19987;-76
2021/04/07 04:21:47;;;;;;;;;;;77.30;2227.20;;;;;;5048942;28;19912;-76
2021/04/07 04:24:13;;;;;;;;;;;77.40;2227.20;;;;;;5046082;28;19905;-75
2021/04/07 04:26:39;;;;;;;;;;;77.40;2227.20;;;;;;5050482;28;20001;-76
2021/04/07 04:29:04;;;;;;;;;;;77.50;2227.20;;;;;;5046291;28;19964;-76
2021/04/07 04:31:31;;;;;;;;;;;77.50;2227.20;;;;;;5048460;28;19905;-76
2021/04/07 04:33:56;;;;;;;;;;;77.40;2227.20;;;;;;5046892;28;19916;-76
2021/04/07 04:36:22;;;;;;;;;;;77.50;2227.20;;;;;;5047409;28;19909;-76
2021/04/07 04:38:47;;;;;;;;;;;77.60;2227.20;;;;;;5046097;28;19909;-77
2021/04/07 04:41:13;;;;;;;;;;;77.40;2227.20;;;;;;5039894;28;19905;-77
2021/04/07 04:43:38;;;;;;;;;;;77.50;2227.20;;;;;;5046350;28;20250;-78
2021/04/07 04:46:04;;;;;;;;;;;77.30;2227.20;;;;;;5029347;28;19936;-77
2021/04/07 04:48:29;;;;;;;;;;;77.30;2227.20;;;;;;5049676;28;20430;-78
2021/04/07 04:50:55;;;;;;;;;;;77.40;2227.20;;;;;;5046679;28;19923;-77
2021/04/07 04:53:21;;;;;;;;;;;77.40;2227.20;;;;;;5054258;28;19920;-77
2021/04/07 04:55:46;;;;;;;;;;;77.40;2227.20;;;;;;5063367;28;19905;-77
2021/04/07 04:58:12;;;;;;;;;;;77.40;2227.20;;;;;;5061423;28;20233;-77
2021/04/07 05:00:37;;;;;;;;;;;77.50;2227.20;;;;;;5054763;28;20012;-77
2021/04/07 05:03:03;;;;;;;;;;;77.40;2227.20;;;;;;5032423;28;19909;-77
2021/04/07 05:05:28;;;;;;;;;;;77.60;2227.20;;;;;;5042464;28;20005;-77
2021/04/07 05:07:54;;;;;;;;;;;77.50;2227.20;;;;;;5042736;28;19905;-76
2021/04/07 05:10:20;;;;;;;;;;;77.40;2227.20;;;;;;5044298;28;19917;-78
2021/04/07 05:12:45;;;;;;;;;;;77.50;2227.20;;;;;;5043584;28;19952;-77
2021/04/07 05:15:11;;;;;;;;;;;77.50;2227.20;;;;;;5047617;28;19905;-74
2021/04/07 05:17:37;;;;;;;;;;;77.40;2227.20;;;;;;5052944;28;19905;-75
2021/04/07 05:20:04;;;;;;;;;;;77.60;2227.20;;;;;;5043608;28;19908;-76
2021/04/07 05:22:29;;;;;;;;;;;77.50;2227.20;;;;;;5054875;28;19913;-77
2021/04/07 05:24:55;;;;;;;;;;;77.70;2227.20;;;;;;5029645;28;19909;-77
2021/04/07 05:27:20;;;;;;;;;;;102.50;2201.60;;;;;;5055464;28;19951;-77
2021/04/07 05:29:46;;;;;;;;;;;77.70;2227.20;;;;;;5057955;28;19908;-76
2021/04/07 05:32:11;;;;;;;;;;;77.70;2201.60;;;;;;5058227;28;19905;-76
2021/04/07 05:34:37;;;;;;;;;;;102.40;2201.60;;;;;;5059613;28;19951;-78
2021/04/07 05:37:03;;;;;;;;;;;102.40;2201.60;;;;;;5052151;28;19904;-78
2021/04/07 05:39:28;;;;;;;;;;;77.70;2227.20;;;;;;5058408;28;19905;-78
2021/04/07 05:41:54;;;;;;;;;;;77.70;2227.20;;;;;;5061643;28;19893;-78
2021/04/07 05:44:20;;;;;;;;;;;77.60;2201.60;;;;;;5059058;28;19889;-78
2021/04/07 05:46:46;;;;;;;;;;;102.40;2201.60;;;;;;5058689;28;19912;-77
2021/04/07 05:49:11;;;;;;;;;;;77.60;2201.60;;;;;;5059049;28;19908;-75
2021/04/07 05:51:37;;;;;;;;;;;77.70;2201.60;;;;;;5051067;28;19972;-78
2021/04/07 05:54:02;;;;;;;;;;;77.70;2227.20;;;;;;5051810;28;19888;-77
2021/04/07 05:56:28;;;;;;;;;;;77.60;2227.20;;;;;;5059199;28;19966;-78
2021/04/07 05:58:54;;;;;;;;;;;77.70;2227.20;;;;;;5064811;28;19904;-79
2021/04/07 06:01:19;;;;;;;;;;;102.40;2201.60;;;;;;5051943;28;19912;-77
2021/04/07 06:03:45;;;;;;;;;;;77.70;2201.60;;;;;;5057901;28;19889;-78
2021/04/07 06:06:10;;;;;;;;;;;77.70;2227.20;;;;;;5056888;28;19912;-77
2021/04/07 06:08:36;;;;;;;;;;;77.70;2227.20;;;;;;5060763;28;20344;-77
2021/04/07 06:11:02;;;;;;;;;;;77.70;2227.20;;;;;;5057987;28;19912;-76
2021/04/07 06:13:28;;;;;;;;;;;102.40;2201.60;;;;;;5036742;28;19905;-75
2021/04/07 06:15:53;;;;;;;;;;;102.50;2201.60;;;;;;5059725;28;19912;-75
2021/04/07 06:18:19;;;;;;;;;;;77.70;2227.20;;;;;;5059499;28;19904;-75
2021/04/07 06:20:46;;;;;;;;;;;102.40;2227.20;;;;;;5062180;28;19948;-75
2021/04/07 06:23:12;;;;;;;;;;;102.40;2227.20;;;;;;5039504;28;19911;-74
2021/04/07 06:25:38;;;;;;;;;;;102.70;2227.20;;;;;;5056893;28;20423;-74
2021/04/07 06:28:07;;;;;;;;;;;102.90;2227.20;;;;;;5058741;28;19916;-75
2021/04/07 06:30:43;;;;;;;;;;;103.00;2201.60;;;;;;5050313;28;19921;-74
2021/04/07 06:33:26;;;;;;;;;;;102.90;2201.60;;;;;;5042045;28;20376;-74
2021/04/07 06:35:51;;;;;;;;;;;102.80;2227.20;;;;;;5057163;28;19909;-75
2021/04/07 06:38:17;;;;;;;;;;;103.00;2201.60;;;;;;5042753;28;20291;-73
2021/04/07 06:40:43;;;;;;;;;;;103.00;2150.40;;;;;;5056413;28;19930;-75
2021/04/07 06:43:09;;;;;;;;;;;103.10;2124.80;;;;;;5061224;28;19909;-74
2021/04/07 06:45:37;;;;;;;;;;;103.30;2124.80;;;;;;5058453;28;20257;-75
2021/04/07 06:48:03;;;;;;;;;;;102.90;2176.00;;;;;;5056929;28;19909;-74
2021/04/07 06:50:28;;;;;;;;;;;103.00;2150.40;;;;;;5058244;28;19920;-74
2021/04/07 06:52:58;;;;;;;;;;;102.90;2201.60;;;;;;5057012;28;19927;-74
2021/04/07 06:55:24;;;;;;;;;;;103.00;2176.00;;;;;;5042904;28;19905;-74
2021/04/07 06:57:49;;;;;;;;;;;103.10;2176.00;;;;;;5057719;28;19911;-77
2021/04/07 07:00:15;;;;;;;;;;;128.00;2124.80;;;;;;5056946;28;20288;-74
2021/04/07 07:02:41;;;;;;;;;;;128.30;2150.40;;;;;;5056380;28;19999;-74
2021/04/07 07:05:07;;;;;;;;;;;128.40;2073.60;;;;;;5055466;28;19908;-74
2021/04/07 07:07:33;;;;;;;;;;;128.50;2099.20;;;;;;5055878;28;19991;-74
2021/04/07 07:09:59;;;;;;;;;;;128.60;2099.20;;;;;;5053762;28;20003;-75
2021/04/07 07:12:25;;;;;;;;;;;128.90;2048.00;;;;;;5051483;28;20284;-74
2021/04/07 07:14:51;;;;;;;;;;;153.70;2073.60;;;;;;5048055;28;19909;-72
2021/04/07 07:17:30;;;;;;;;;;;153.80;1996.80;;;;;;5043193;28;19916;-74
2021/04/07 07:19:56;;;;;;;;;;;153.80;1996.80;;;;;;5053794;28;19905;-76
2021/04/07 07:22:23;;;;;;;;;;;153.80;2022.40;;;;;;5053045;28;19905;-77
2021/04/07 07:24:59;;;;;;;;;;;128.90;2048.00;;;;;;5052189;28;19905;-74
2021/04/07 07:27:35;;;;;;;;;;;153.70;2022.40;;;;;;5053097;28;19990;-75
2021/04/07 07:30:01;;;;;;;;;;;153.60;2099.20;;;;;;5049071;28;19913;-75
2021/04/07 07:32:34;;;;;;;;;;;153.80;1971.20;;;;;;5049242;28;19927;-77
2021/04/07 07:35:05;;;;;;;;;;;153.90;1996.80;;;;;;5052045;28;20272;-76
2021/04/07 07:37:33;;;;;;;;;;;153.90;2022.40;;;;;;5053193;28;19904;-76
2021/04/07 07:39:58;;;;;;;;;;;154.00;2048.00;;;;;;5051695;28;20000;-75
2021/04/07 07:42:24;;;;;;;;;;;154.20;1971.20;;;;;;5052076;28;19952;-75
2021/04/07 07:44:49;;;;;;;;;;;154.40;1996.80;;;;;;5053211;28;19948;-75
2021/04/07 07:47:21;;;;;;;;;;;154.50;1920.00;;;;;;5053107;28;20364;-76
2021/04/07 07:49:54;;;;;;;;;;;154.50;1894.40;;;;;;5051909;28;19927;-78
2021/04/07 07:52:26;;;;;;;;;;;154.50;1868.80;;;;;;5051989;28;19913;-78
2021/04/07 07:54:52;;;;;;;;;;;179.40;1868.80;;;;;;5035267;28;19912;-76
2021/04/07 07:57:18;;;;;;;;;;;179.60;1868.80;;;;;;5052994;28;19905;-76
2021/04/07 07:59:43;;;;;;;;;;;179.40;1894.40;;;;;;5050031;28;19931;-76
2021/04/07 08:02:18;;;;;;;;;;;179.50;1868.80;;;;;;5042096;28;20382;-76
2021/04/07 08:04:47;;;;;;;;;;;179.50;1843.20;;;;;;5050416;28;20321;-76
2021/04/07 08:07:14;;;;;;;;;;;179.40;1843.20;;;;;;5051753;28;20019;-75
2021/04/07 08:09:40;;;;;;;;;;;179.60;1766.40;;;;;;5051818;28;19905;-75
2021/04/07 08:12:07;;;;;;;;;;;179.60;1766.40;;;;;;5052624;28;19928;-78
2021/04/07 08:14:33;;;;;;;;;;;179.60;1766.40;;;;;;5051767;28;19911;-75
2021/04/07 08:17:00;;;;;;;;;;;179.70;1766.40;;;;;;5051661;28;19904;-75
2021/04/07 08:19:26;;;;;;;;;;;179.50;1689.60;;;;;;5052722;28;19908;-79
2021/04/07 08:21:53;;;;;;;;;;;179.60;1740.80;;;;;;5051606;28;19950;-77
2021/04/07 08:24:19;;;;;;;;;;;179.80;1664.00;;;;;;5052865;28;19912;-78
2021/04/07 08:26:45;;;;;;;;;;;179.60;1664.00;;;;;;5051434;28;19911;-76
2021/04/07 08:29:11;;;;;;;;;;;179.60;1766.40;;;;;;5052604;28;20003;-79
2021/04/07 08:31:37;;;;;;;;;;;179.30;1664.00;;;;;;5052568;28;20007;-77
2021/04/07 08:34:04;;;;;;;;;;;179.30;1638.40;;;;;;5051701;28;19909;-75
2021/04/07 08:36:30;;;;;;;;;;;179.30;1664.00;;;;;;5052652;28;19908;-76
2021/04/07 08:38:59;;;;;;;;;;;179.50;1664.00;;;;;;5052116;28;19927;-75
2021/04/07 08:41:26;;;;;;;;;;;179.60;1612.80;;;;;;5056277;28;19927;-75
2021/04/07 08:43:53;;;;;;;;;;;179.80;1561.60;;;;;;5038626;28;19905;-76
2021/04/07 08:46:27;;;;;;;;;;;180.00;1612.80;;;;;;5054965;28;19905;-76
2021/04/07 08:48:53;;;;;;;;;;;180.10;1612.80;;;;;;5055204;28;19940;-77
2021/04/07 08:51:21;;;;;;;;;;;204.80;1587.20;;;;;;5055876;28;19917;-85
2021/04/07 08:53:48;;;;;;;;;;;204.80;1536.00;;;;;;5056267;28;19916;-76
2021/04/07 08:56:15;;;;;;;;;;;180.00;1536.00;;;;;;5056192;28;20331;-76
2021/04/07 08:58:48;;;;;;;;;;;204.80;1536.00;;;;;;5055025;28;19912;-76
2021/04/07 09:01:18;;;;;;;;;;;204.80;1510.40;;;;;;5054799;28;19919;-75
2021/04/07 09:03:43;;;;;;;;;;;204.80;1536.00;;;;;;5054654;28;19943;-76
2021/04/07 09:06:12;;;;;;;;;;;205.10;1459.20;;;;;;5056129;28;19944;-76
2021/04/07 09:08:37;;;;;;;;;;;205.30;1433.60;;;;;;5054627;28;19911;-75
2021/04/07 09:11:03;;;;;;;;;;;205.40;1408.00;;;;;;5055822;28;20297;-76
2021/04/07 09:13:33;;;;;;;;;;;205.40;1433.60;;;;;;5054615;28;19905;-76
2021/04/07 09:16:04;;;;;;;;;;;205.50;1382.40;;;;;;5055801;28;19905;-77
2021/04/07 09:18:37;;;;;;;;;;;230.40;1305.60;;;;;;5055569;28;19904;-76
2021/04/07 09:21:03;;;;;;;;;;;230.40;1331.20;;;;;;5055696;28;19904;-76
2021/04/07 09:23:31;;;;;;;;;;;230.40;1356.80;;;;;;5054819;28;19911;-76
2021/04/07 09:25:58;;;;;;;;;;;230.60;1305.60;;;;;;5054450;28;20023;-83
2021/04/07 09:28:34;;;;;;;;;;;230.60;1356.80;;;;;;5054404;28;19912;-77
2021/04/07 09:31:05;;;;;;;;;;;230.80;1331.20;;;;;;5053812;28;20273;-78
2021/04/07 09:33:31;;;;;;;;;;;230.90;1305.60;;;;;;5055665;28;19905;-75
2021/04/07 09:35:59;;;;;;;;;;;230.90;1280.00;;;;;;5055522;28;19909;-76
2021/04/07 09:38:30;;;;;;;;;;;231.10;1254.40;;;;;;5054132;28;19992;-77
2021/04/07 09:41:03;;;;;;;;;;;231.30;1228.80;;;;;;5053971;28;19911;-76
2021/04/07 09:43:30;;;;;;;;;;;256.60;1228.80;;;;;;5055367;28;19912;-76
2021/04/07 09:45:56;;;;;;;;;;;231.10;1280.00;;;;;;5054080;28;19966;-77
2021/04/07 09:48:21;;;;;;;;;;;230.70;1254.40;;;;;;5055332;28;20000;-76
2021/04/07 09:50:47;;;;;;;;;;;231.20;1228.80;;;;;;5054291;28;19987;-77
2021/04/07 09:53:25;;;;;;;;;;;256.20;1177.60;;;;;;5054012;28;19905;-86
2021/04/07 09:55:58;;;;;;;;;;;256.80;1203.20;;;;;;5055094;28;19916;-76
2021/04/07 09:58:24;;;;;;;;;;;256.40;1152.00;;;;;;5053777;28;20410;-76
2021/04/07 10:00:50;;;;;;;;;;;231.20;1126.40;;;;;;5055102;28;20019;-76
2021/04/07 10:03:16;;;;;;;;;;;230.70;1177.60;;;;;;5051958;28;19934;-75
2021/04/07 10:05:41;;;;;;;;;;;256.00;1152.00;;;;;;5042914;28;20352;-75
2021/04/07 10:08:20;;;;;;;;;;;256.40;1177.60;;;;;;5053672;28;19959;-75
2021/04/07 10:10:45;;;;;;;;;;;231.00;1126.40;;;;;;5053565;28;19913;-76
2021/04/07 10:13:11;;;;;;;;;;;230.90;1126.40;;;;;;5053533;28;19915;-75
2021/04/07 10:15:38;;;;;;;;;;;231.20;1075.20;;;;;;5054572;28;19909;-75
2021/04/07 10:18:07;;;;;;;;;;;256.00;1049.60;;;;;;5054642;28;20011;-77
2021/04/07 10:20:33;;;;;;;;;;;256.40;1075.20;;;;;;5049305;28;19944;-75
2021/04/07 10:22:58;;;;;;;;;;;256.50;1049.60;;;;;;5053519;28;20272;-76
2021/04/07 10:25:26;;;;;;;;;;;231.20;1075.20;;;;;;5054522;28;19959;-75
2021/04/07 10:27:51;;;;;;;;;;;231.20;972.80;;;;;;5054271;28;19938;-77
2021/04/07 10:30:21;;;;;;;;;;;256.40;1024.00;;;;;;5054205;28;21800;-76
2021/04/07 10:32:47;;;;;;;;;;;281.70;921.60;;;;;;5054703;28;19916;-75
2021/04/07 10:35:25;;;;;;;;;;;256.50;972.80;;;;;;5054438;28;19904;-76
2021/04/07 10:37:59;;;;;;;;;;;281.70;921.60;;;;;;5052874;28;19915;-75
2021/04/07 10:40:28;;;;;;;;;;;282.10;896.00;;;;;;5052811;28;20357;-75
2021/04/07 10:42:54;;;;;;;;;;;282.30;947.20;;;;;;5054061;28;19912;-82
2021/04/07 10:45:21;;;;;;;;;;;281.80;1024.00;;;;;;5052998;28;19905;-77
2021/04/07 10:47:48;;;;;;;;;;;256.80;947.20;;;;;;5038718;28;19909;-76
2021/04/07 10:50:13;;;;;;;;;;;256.70;921.60;;;;;;5052918;28;19912;-82
2021/04/07 10:52:43;;;;;;;;;;;282.00;998.40;;;;;;5041627;28;19905;-79
2021/04/07 10:55:10;;;;;;;;;;;307.20;947.20;;;;;;5051135;28;19905;-80
2021/04/07 10:57:37;;;;;;;;;;;307.50;896.00;;;;;;5035610;28;19999;-77
2021/04/07 11:00:07;;;;;;;;;;;282.20;947.20;;;;;;5053801;28;19913;-77
2021/04/07 11:02:43;;;;;;;;;;;282.30;896.00;;;;;;5043897;28;19920;-79
2021/04/07 11:05:11;;;;;;;;;;;307.40;921.60;;;;;;5034043;28;19911;-81
2021/04/07 11:07:36;;;;;;;;;;;307.60;896.00;;;;;;5036491;28;19998;-82
2021/04/07 11:10:02;;;;;;;;;;;307.40;870.40;;;;;;5052768;28;19944;-80
2021/04/07 11:12:28;;;;;;;;;;;307.80;844.80;;;;;;5052478;28;19912;-78
2021/04/07 11:14:54;;;;;;;;;;;308.10;844.80;;;;;;5052735;28;19909;-81
2021/04/07 11:17:19;;;;;;;;;;;333.00;844.80;;;;;;5053052;28;19904;-81
2021/04/07 11:19:45;;;;;;;;;;;333.20;793.60;;;;;;5036307;28;19905;-87
2021/04/07 11:22:11;;;;;;;;;;;308.10;742.40;;;;;;5046090;28;20337;-80
2021/04/07 11:24:37;;;;;;;;;;;307.40;844.80;;;;;;5052572;28;19909;-78
2021/04/07 11:27:06;;;;;;;;;;;282.40;819.20;;;;;;5052471;28;20360;-78
2021/04/07 11:29:31;;;;;;;;;;;282.00;870.40;;;;;;5052189;28;19955;-78
2021/04/07 11:31:57;;;;;;;;;;;307.20;896.00;;;;;;5051892;28;19925;-79
2021/04/07 11:34:28;;;;;;;;;;;307.30;896.00;;;;;;5052191;28;19904;-80
2021/04/07 11:44:25;;;;;;;;;;;308.00;819.20;;;;;;5046301;28;19904;-82
2021/04/07 11:46:52;;;;;;;;;;;307.70;844.80;;;;;;5052463;28;19909;-83
2021/04/07 11:49:18;;;;;;;;;;;282.30;793.60;;;;;;5052578;28;19904;-84
2021/04/07 11:51:44;;;;;;;;;;;281.80;844.80;;;;;;5052349;28;19917;-79
2021/04/07 11:54:11;;;;;;;;;;;307.30;844.80;;;;;;5027171;28;20015;-82
2021/04/07 11:56:42;;;;;;;;;;;307.80;819.20;;;;;;5049151;28;20038;-82
2021/04/07 11:59:09;;;;;;;;;;;332.80;819.20;;;;;;5052367;28;19912;-78
2021/04/07 12:01:34;;;;;;;;;;;333.30;742.40;;;;;;5032174;28;19920;-83
2021/04/07 12:04:00;;;;;;;;;;;333.60;742.40;;;;;;5020309;28;19905;-80
2021/04/07 12:06:26;;;;;;;;;;;333.70;819.20;;;;;;5038802;28;19905;-80
2021/04/07 12:08:51;;;;;;;;;;;333.70;793.60;;;;;;5052807;28;20367;-80
2021/04/07 12:11:17;;;;;;;;;;;333.70;742.40;;;;;;5053321;28;19920;-85
2021/04/07 12:13:43;;;;;;;;;;;358.80;665.60;;;;;;5053064;28;19904;-79
2021/04/07 12:16:08;;;;;;;;;;;358.90;691.20;;;;;;5038640;28;19911;-85
2021/04/07 12:18:34;;;;;;;;;;;358.70;691.20;;;;;;5032339;28;20008;-81
2021/04/07 12:20:59;;;;;;;;;;;358.60;691.20;;;;;;5053420;28;20004;-79
2021/04/07 12:23:25;;;;;;;;;;;359.00;691.20;;;;;;5053158;28;20023;-82
2021/04/07 12:25:51;;;;;;;;;;;358.70;742.40;;;;;;5052521;28;19978;-80
2021/04/07 12:28:16;;;;;;;;;;;358.80;665.60;;;;;;5048226;28;20391;-80
2021/04/07 12:30:49;;;;;;;;;;;333.40;716.80;;;;;;5048788;28;19920;-80
2021/04/07 12:33:16;;;;;;;;;;;332.90;793.60;;;;;;5050559;28;20345;-83
2021/04/07 12:35:41;;;;;;;;;;;332.80;844.80;;;;;;5049833;28;19905;-80
2021/04/07 12:38:07;;;;;;;;;;;333.30;870.40;;;;;;5033429;28;19912;-80
2021/04/07 12:40:33;;;;;;;;;;;333.70;768.00;;;;;;5055545;28;19912;-85
2021/04/07 12:42:58;;;;;;;;;;;308.00;768.00;;;;;;5056502;28;20288;-85
2021/04/07 12:45:24;;;;;;;;;;;307.60;819.20;;;;;;5039045;28;19995;-83
2021/04/07 12:47:49;;;;;;;;;;;307.70;819.20;;;;;;5024934;28;19905;-79
2021/04/07 12:50:15;;;;;;;;;;;308.10;742.40;;;;;;5055577;28;19905;-80
2021/04/07 12:52:41;;;;;;;;;;;333.20;768.00;;;;;;5055550;28;19905;-79
2021/04/07 12:55:06;;;;;;;;;;;333.60;716.80;;;;;;5055438;28;19975;-84
2021/04/07 12:57:32;;;;;;;;;;;358.50;691.20;;;;;;5038566;28;19908;-79
2021/04/07 12:59:57;;;;;;;;;;;333.10;768.00;;;;;;5054892;28;20299;-79
2021/04/07 13:02:23;;;;;;;;;;;332.80;819.20;;;;;;5056400;28;20034;-84
2021/04/07 13:04:49;;;;;;;;;;;307.50;768.00;;;;;;5054867;28;19954;-79
2021/04/07 13:07:14;;;;;;;;;;;307.30;819.20;;;;;;5055095;28;20361;-79
2021/04/07 13:09:40;;;;;;;;;;;282.50;819.20;;;;;;5042377;28;19908;-85
2021/04/07 13:12:06;;;;;;;;;;;282.40;819.20;;;;;;5053152;28;19958;-79
2021/04/07 13:14:31;;;;;;;;;;;282.40;793.60;;;;;;5056049;28;20003;-79
2021/04/07 13:16:57;;;;;;;;;;;307.70;844.80;;;;;;5054891;28;19904;-80
2021/04/07 13:19:25;;;;;;;;;;;332.90;844.80;;;;;;5054899;28;19905;-79
2021/04/07 13:21:51;;;;;;;;;;;332.90;716.80;;;;;;5054979;28;19909;-85
2021/04/07 13:24:16;;;;;;;;;;;333.40;691.20;;;;;;5051553;28;19924;-79
2021/04/07 13:26:42;;;;;;;;;;;333.60;691.20;;;;;;5043265;28;19912;-79
2021/04/07 13:29:08;;;;;;;;;;;333.70;742.40;;;;;;5054534;28;20353;-79
2021/04/07 13:31:33;;;;;;;;;;;333.60;793.60;;;;;;5055562;28;19920;-79
2021/04/07 13:34:03;;;;;;;;;;;333.50;768.00;;;;;;5055880;28;19905;-79
2021/04/07 13:37:18;;;;;;;;;;;333.40;716.80;;;;;;5037616;28;19995;-79
2021/04/07 13:39:27;;;;;;;;;;;333.50;742.40;;;;;;5033768;28;19912;-79
2021/04/07 13:44:36;;;;;;;;;;;333.70;742.40;;;;;;5054689;28;19916;-79
2021/04/07 13:47:02;;;;;;;;;;;358.40;665.60;;;;;;5030593;28;19909;-79